createdAt,value
2023-01-18T00:01:00.305Z,5.50
2023-01-18T00:03:27.650Z,5.50
2023-01-18T00:05:55.189Z,5.50
2023-01-18T00:08:22.413Z,5.50
2023-01-18T00:10:49.596Z,5.50
2023-01-18T00:13:16.811Z,5.50
2023-01-18T00:15:44.213Z,5.50
2023-01-18T00:18:11.556Z,5.50
2023-01-18T00:20:38.866Z,5.50
2023-01-18T00:23:06.443Z,5.50
2023-01-18T00:25:33.676Z,5.50
2023-01-18T00:28:00.888Z,5.50
2023-01-18T00:30:28.751Z,5.60
2023-01-18T00:32:58.361Z,5.60
2023-01-18T00:35:26.299Z,5.60
2023-01-18T00:37:54.375Z,5.60
2023-01-18T00:40:22.875Z,5.60
2023-01-18T00:43:08.914Z,5.60
2023-01-18T00:45:36.229Z,5.60
2023-01-18T00:48:03.623Z,5.60
2023-01-18T00:50:30.891Z,5.50
2023-01-18T00:53:00.088Z,5.60
2023-01-18T00:55:27.965Z,5.60
2023-01-18T00:57:55.207Z,5.60
2023-01-18T01:00:23.713Z,5.60
2023-01-18T01:02:51.679Z,5.60
2023-01-18T01:05:43.599Z,5.60
2023-01-18T01:08:18.734Z,5.60
2023-01-18T01:10:50.704Z,5.60
2023-01-18T01:13:39.748Z,5.70
2023-01-18T01:16:30.432Z,5.70
2023-01-18T01:19:16.858Z,5.60
2023-01-18T01:22:02.674Z,5.70
2023-01-18T01:24:48.727Z,5.70
2023-01-18T01:27:17.411Z,5.60
2023-01-18T01:29:44.724Z,5.70
2023-01-18T01:32:12.174Z,5.60
2023-01-18T01:34:39.477Z,5.60
2023-01-18T01:37:06.842Z,5.60
2023-01-18T01:39:34.080Z,5.60
2023-01-18T01:42:01.520Z,5.60
2023-01-18T01:44:30.687Z,5.60
2023-01-18T01:47:06.534Z,5.60
2023-01-18T01:49:42.957Z,5.60
2023-01-18T01:52:11.232Z,5.60
2023-01-18T01:54:52.615Z,5.70
2023-01-18T01:57:22.883Z,5.60
2023-01-18T02:00:06.689Z,5.50
2023-01-18T02:02:42.683Z,5.50
2023-01-18T02:05:12.390Z,5.50
2023-01-18T02:07:39.927Z,5.50
2023-01-18T02:10:07.900Z,5.50
2023-01-18T02:12:37.546Z,5.50
2023-01-18T02:15:05.397Z,5.50
2023-01-18T02:18:11.578Z,5.50
2023-01-18T02:20:41.829Z,5.60
2023-01-18T02:23:56.946Z,5.50
2023-01-18T02:27:02.071Z,5.50
2023-01-18T02:29:52.563Z,5.50
2023-01-18T02:32:47.002Z,5.40
2023-01-18T02:35:37.605Z,5.40
2023-01-18T02:38:14.003Z,5.40
2023-01-18T02:40:41.175Z,5.40
2023-01-18T02:43:28.529Z,5.30
2023-01-18T02:46:15.540Z,5.20
2023-01-18T02:48:44.894Z,5.20
2023-01-18T02:51:12.508Z,5.20
2023-01-18T02:53:44.779Z,5.10
2023-01-18T02:56:21.025Z,5.10
2023-01-18T02:58:57.953Z,5.10
2023-01-18T03:01:43.325Z,5.10
2023-01-18T03:04:16.937Z,5.10
2023-01-18T03:06:48.737Z,5.20
2023-01-18T03:09:18.532Z,5.20
2023-01-18T03:11:49.969Z,5.20
2023-01-18T03:14:34.454Z,5.20
2023-01-18T03:17:20.129Z,5.20
2023-01-18T03:20:07.987Z,5.20
2023-01-18T03:22:58.484Z,5.20
2023-01-18T03:25:33.747Z,5.10
2023-01-18T03:28:47.294Z,5.10
2023-01-18T03:31:37.262Z,5.20
2023-01-18T03:34:22.982Z,5.20
2023-01-18T03:36:53.020Z,5.20
2023-01-18T03:39:28.413Z,5.10
2023-01-18T03:42:10.471Z,5.20
2023-01-18T03:44:43.638Z,5.20
2023-01-18T03:47:10.920Z,5.30
2023-01-18T03:49:38.348Z,5.30
2023-01-18T03:52:08.859Z,5.30
2023-01-18T03:54:49.259Z,5.30
2023-01-18T03:57:31.572Z,5.30
2023-01-18T04:00:00.652Z,5.20
2023-01-18T04:02:28.604Z,5.10
2023-01-18T04:04:57.629Z,5.10
2023-01-18T04:07:26.073Z,5.10
2023-01-18T04:09:53.498Z,5.10
2023-01-18T04:12:20.678Z,5.10
2023-01-18T04:14:47.925Z,5.10
2023-01-18T04:17:15.180Z,5.10
2023-01-18T04:19:42.640Z,5.10
2023-01-18T04:22:10.057Z,5.20
2023-01-18T04:24:37.297Z,5.20
2023-01-18T04:27:04.809Z,5.20
2023-01-18T04:29:32.019Z,5.20
2023-01-18T04:31:59.245Z,5.20
2023-01-18T04:34:26.515Z,5.30
2023-01-18T04:36:53.845Z,5.20
2023-01-18T04:39:21.160Z,5.20
2023-01-18T04:41:48.515Z,5.20
2023-01-18T04:44:16.483Z,5.20
2023-01-18T04:46:43.995Z,5.10
2023-01-18T04:49:15.291Z,5.10
2023-01-18T04:51:44.402Z,5.10
2023-01-18T04:54:14.536Z,5.10
2023-01-18T04:56:41.790Z,5.10
2023-01-18T04:59:15.630Z,5.10
2023-01-18T05:01:43.124Z,5.10
2023-01-18T05:04:10.850Z,5.10
2023-01-18T05:06:38.102Z,5.10
2023-01-18T05:09:05.324Z,5.10
2023-01-18T05:11:32.566Z,5.20
2023-01-18T05:13:59.817Z,5.20
2023-01-18T05:16:27.328Z,5.10
2023-01-18T05:18:54.820Z,5.10
2023-01-18T05:21:22.151Z,5.10
2023-01-18T05:23:49.389Z,5.00
2023-01-18T05:26:20.920Z,5.10
2023-01-18T05:28:49.010Z,5.10
2023-01-18T05:31:18.720Z,5.10
2023-01-18T05:33:46.184Z,5.10
2023-01-18T05:36:13.471Z,5.00
2023-01-18T05:38:40.715Z,5.00
2023-01-18T05:41:08.282Z,4.90
2023-01-18T05:43:35.908Z,4.90
2023-01-18T05:46:04.649Z,4.90
2023-01-18T05:48:31.941Z,4.90
2023-01-18T05:50:59.212Z,5.00
2023-01-18T05:53:26.485Z,4.90
2023-01-18T05:55:56.117Z,4.90
2023-01-18T05:58:23.983Z,4.90
2023-01-18T06:00:51.528Z,4.90
2023-01-18T06:03:19.424Z,5.00
2023-01-18T06:05:47.827Z,5.00
2023-01-18T06:08:15.875Z,5.00
2023-01-18T06:10:44.075Z,5.00
2023-01-18T06:13:11.338Z,5.00
2023-01-18T06:15:39.015Z,4.90
2023-01-18T06:18:08.167Z,4.90
2023-01-18T06:20:35.513Z,4.90
2023-01-18T06:23:02.789Z,4.80
2023-01-18T06:25:30.027Z,4.90
2023-01-18T06:27:57.480Z,4.90
2023-01-18T06:30:25.360Z,4.90
2023-01-18T06:32:53.096Z,4.90
2023-01-18T06:35:21.707Z,4.90
2023-01-18T06:37:49.103Z,4.90
2023-01-18T06:40:17.617Z,4.90
2023-01-18T06:42:48.575Z,4.90
2023-01-18T06:45:18.110Z,4.80
2023-01-18T06:47:45.710Z,4.90
2023-01-18T06:50:13.129Z,5.00
2023-01-18T06:52:42.206Z,5.00
2023-01-18T06:55:10.519Z,4.90
2023-01-18T06:57:37.962Z,4.90
2023-01-18T07:00:06.556Z,4.90
2023-01-18T07:02:34.662Z,4.90
2023-01-18T07:05:02.655Z,4.90
2023-01-18T07:07:30.414Z,4.90
2023-01-18T07:09:57.703Z,5.00
2023-01-18T07:12:25.192Z,5.10
2023-01-18T07:14:52.496Z,4.90
2023-01-18T07:17:19.983Z,5.00
2023-01-18T07:19:47.170Z,4.80
2023-01-18T07:22:14.504Z,4.60
2023-01-18T07:24:41.757Z,4.60
2023-01-18T07:27:09.028Z,4.60
2023-01-18T07:29:36.333Z,4.60
2023-01-18T07:32:03.864Z,4.60
2023-01-18T07:34:31.429Z,4.50
2023-01-18T07:36:58.831Z,4.60
2023-01-18T07:39:26.178Z,4.70
2023-01-18T07:41:53.442Z,4.80
2023-01-18T07:44:20.681Z,4.80
2023-01-18T07:46:48.154Z,4.90
2023-01-18T07:49:15.610Z,4.90
2023-01-18T07:51:42.900Z,4.80
2023-01-18T07:54:10.120Z,4.90
2023-01-18T07:56:37.638Z,5.00
2023-01-18T07:59:04.950Z,5.00
2023-01-18T08:01:32.337Z,5.00
2023-01-18T08:03:59.723Z,4.90
2023-01-18T08:06:27.267Z,5.00
2023-01-18T08:08:55.912Z,4.90
2023-01-18T08:11:23.544Z,4.90
2023-01-18T08:13:52.607Z,4.90
2023-01-18T08:16:20.087Z,4.90
2023-01-18T08:18:50.985Z,4.90
2023-01-18T08:21:18.708Z,4.90
2023-01-18T08:23:46.160Z,4.90
2023-01-18T08:26:15.152Z,4.90
2023-01-18T08:28:44.629Z,4.90
2023-01-18T08:31:17.351Z,5.00
2023-01-18T08:33:47.478Z,5.00
2023-01-18T08:36:18.019Z,5.00
2023-01-18T08:38:53.256Z,5.00
2023-01-18T08:41:20.886Z,5.00
2023-01-18T08:43:52.336Z,5.00
2023-01-18T08:46:20.012Z,5.00
2023-01-18T08:48:56.345Z,5.00
2023-01-18T08:51:25.876Z,5.10
2023-01-18T08:53:56.505Z,5.10
2023-01-18T08:56:23.782Z,5.20
2023-01-18T08:58:53.856Z,5.30
2023-01-18T09:01:23.442Z,5.20
2023-01-18T09:03:53.649Z,5.20
2023-01-18T09:06:20.932Z,5.20
2023-01-18T09:08:49.383Z,5.20
2023-01-18T09:11:17.740Z,5.10
2023-01-18T09:13:59.745Z,5.00
2023-01-18T09:16:29.130Z,4.90
2023-01-18T09:18:57.534Z,5.00
2023-01-18T09:21:24.833Z,5.10
2023-01-18T09:23:52.115Z,5.20
2023-01-18T09:26:21.011Z,5.20
2023-01-18T09:28:52.127Z,5.30
2023-01-18T09:31:21.874Z,5.30
2023-01-18T09:33:53.566Z,5.20
2023-01-18T09:36:26.255Z,5.20
2023-01-18T09:38:55.231Z,5.10
2023-01-18T09:41:26.703Z,5.10
2023-01-18T09:44:02.429Z,5.10
2023-01-18T09:46:35.806Z,5.20
2023-01-18T09:49:06.805Z,5.10
2023-01-18T09:51:53.276Z,5.10
2023-01-18T09:54:38.272Z,5.10
2023-01-18T09:57:18.656Z,5.10
2023-01-18T09:59:55.956Z,5.20
2023-01-18T10:02:38.279Z,5.20
2023-01-18T10:05:13.621Z,5.10
2023-01-18T10:08:08.027Z,5.00
2023-01-18T10:10:43.814Z,5.10
2023-01-18T10:13:32.837Z,5.10
2023-01-18T10:16:00.267Z,5.00
2023-01-18T10:18:27.640Z,4.90
2023-01-18T10:21:01.360Z,4.80
2023-01-18T10:23:39.819Z,4.80
2023-01-18T10:26:26.242Z,4.80
2023-01-18T10:28:56.549Z,4.80
2023-01-18T10:31:50.830Z,4.70
2023-01-18T10:34:20.665Z,4.70
2023-01-18T10:37:04.391Z,4.70
2023-01-18T10:39:43.288Z,4.70
2023-01-18T10:42:17.980Z,4.70
2023-01-18T10:44:45.503Z,4.80
2023-01-18T10:47:17.832Z,4.80
2023-01-18T10:49:48.488Z,4.70
2023-01-18T10:52:27.742Z,4.80
2023-01-18T10:55:02.228Z,4.70
2023-01-18T10:57:37.219Z,4.80
2023-01-18T11:00:12.668Z,4.80
2023-01-18T11:02:40.620Z,4.80
2023-01-18T11:05:39.951Z,4.80
2023-01-18T11:08:25.042Z,4.80
2023-01-18T11:11:02.874Z,4.90
2023-01-18T11:13:48.331Z,4.90
2023-01-18T11:16:19.176Z,5.00
2023-01-18T11:19:05.433Z,5.00
2023-01-18T11:21:46.779Z,5.10
2023-01-18T11:24:20.574Z,5.20
2023-01-18T11:27:13.732Z,5.30
2023-01-18T11:29:45.928Z,5.40
2023-01-18T11:32:28.139Z,5.50
2023-01-18T11:34:57.338Z,5.60
2023-01-18T11:37:30.697Z,5.80
2023-01-18T11:39:58.042Z,6.00
2023-01-18T11:42:32.057Z,6.20
2023-01-18T11:45:25.005Z,6.60
2023-01-18T11:48:30.654Z,7.00
2023-01-18T11:51:07.231Z,7.20
2023-01-18T11:54:06.919Z,7.20
2023-01-18T11:56:51.161Z,7.30
2023-01-18T11:59:41.717Z,7.40
2023-01-18T12:02:24.341Z,7.70
2023-01-18T12:05:13.934Z,8.00
2023-01-18T12:08:15.121Z,8.10
2023-01-18T12:11:11.562Z,8.20
2023-01-18T12:13:53.966Z,8.10
2023-01-18T12:16:33.702Z,7.90
2023-01-18T12:19:12.563Z,7.80
2023-01-18T12:21:56.744Z,7.70
2023-01-18T12:24:50.591Z,7.60
2023-01-18T12:27:32.947Z,7.60
2023-01-18T12:30:22.417Z,7.50
2023-01-18T12:33:18.543Z,7.30
2023-01-18T12:36:18.227Z,7.20
2023-01-18T12:38:54.526Z,7.20
2023-01-18T12:42:21.575Z,7.10
2023-01-18T12:45:05.888Z,7.20
2023-01-18T12:47:39.611Z,7.30
2023-01-18T12:50:13.451Z,7.30
2023-01-18T12:52:48.110Z,7.50
2023-01-18T12:55:21.511Z,7.30
2023-01-18T12:57:52.143Z,7.30
2023-01-18T13:00:24.997Z,7.10
2023-01-18T13:02:57.455Z,7.10
2023-01-18T13:05:35.022Z,7.30
2023-01-18T13:08:10.700Z,7.20
2023-01-18T13:10:38.671Z,7.20
2023-01-18T13:13:07.155Z,7.30
2023-01-18T13:15:44.715Z,7.20
2023-01-18T13:18:27.120Z,7.00
2023-01-18T13:21:18.158Z,7.00
2023-01-18T13:24:14.373Z,6.80
2023-01-18T13:26:41.822Z,6.70
2023-01-18T13:29:29.889Z,6.50
2023-01-18T13:31:57.893Z,6.40
2023-01-18T13:34:44.916Z,6.40
2023-01-18T13:38:08.018Z,6.30
2023-01-18T13:40:42.369Z,6.40
2023-01-18T13:43:41.694Z,6.50
2023-01-18T13:46:09.770Z,6.50
2023-01-18T13:48:45.836Z,6.50
2023-01-18T13:51:41.254Z,6.50
2023-01-18T13:54:16.578Z,6.50
2023-01-18T13:57:01.980Z,6.50
2023-01-18T13:59:50.427Z,6.50
2023-01-18T14:02:23.275Z,6.50
2023-01-18T14:05:09.161Z,6.50
2023-01-18T14:07:42.051Z,6.50
2023-01-18T14:10:36.272Z,6.40
2023-01-18T14:13:12.232Z,6.40
2023-01-18T14:15:46.833Z,6.40
2023-01-18T14:18:29.215Z,6.30
2023-01-18T14:21:06.214Z,6.30
2023-01-18T14:24:00.679Z,6.30
2023-01-18T14:26:33.736Z,6.30
2023-01-18T14:29:06.653Z,6.30
2023-01-18T14:31:42.437Z,6.40
2023-01-18T14:34:28.767Z,6.50
2023-01-18T14:36:59.735Z,6.60
2023-01-18T14:39:30.014Z,6.60
2023-01-18T14:42:01.799Z,6.60
2023-01-18T14:44:58.279Z,6.60
2023-01-18T14:47:29.357Z,6.60
2023-01-18T14:49:56.674Z,6.60
2023-01-18T14:52:28.473Z,6.60
2023-01-18T14:54:56.198Z,6.60
2023-01-18T14:57:24.289Z,6.60
2023-01-18T15:00:16.300Z,6.50
2023-01-18T15:02:43.825Z,6.50
2023-01-18T15:05:16.951Z,6.50
2023-01-18T15:07:47.977Z,6.50
2023-01-18T15:10:18.639Z,6.50
2023-01-18T15:12:51.374Z,6.50
2023-01-18T15:15:42.336Z,6.50
2023-01-18T15:18:19.228Z,6.50
2023-01-18T15:20:55.053Z,6.50
2023-01-18T15:23:23.486Z,6.50
2023-01-18T15:25:52.554Z,6.50
2023-01-18T15:28:23.996Z,6.40
2023-01-18T15:30:54.227Z,6.50
2023-01-18T15:33:23.561Z,6.60
2023-01-18T15:35:57.095Z,6.50
2023-01-18T15:38:24.847Z,6.50
2023-01-18T15:41:11.092Z,6.60
2023-01-18T15:43:43.308Z,6.60
2023-01-18T15:46:16.735Z,6.60
2023-01-18T15:48:54.639Z,6.60
2023-01-18T15:51:42.361Z,6.70
2023-01-18T15:54:18.000Z,6.60
2023-01-18T15:56:46.732Z,6.60
2023-01-18T15:59:22.140Z,6.60
2023-01-18T16:02:08.689Z,6.60
2023-01-18T16:04:36.350Z,6.60
2023-01-18T16:07:25.880Z,6.60
2023-01-18T16:10:19.428Z,6.50
2023-01-18T16:12:46.708Z,6.50
2023-01-18T16:15:28.106Z,6.50
2023-01-18T16:18:06.801Z,6.40
2023-01-18T16:20:35.790Z,6.40
2023-01-18T16:23:15.597Z,6.40
2023-01-18T16:25:43.494Z,6.40
2023-01-18T16:28:10.903Z,6.50
2023-01-18T16:30:39.990Z,6.40
2023-01-18T16:33:16.674Z,6.40
2023-01-18T16:35:44.880Z,6.40
2023-01-18T16:38:20.065Z,6.50
2023-01-18T16:40:49.743Z,6.50
2023-01-18T16:43:23.675Z,6.50
2023-01-18T16:45:53.146Z,6.50
2023-01-18T16:48:22.768Z,6.50
2023-01-18T16:50:50.418Z,6.50
2023-01-18T16:53:17.927Z,6.50
2023-01-18T16:55:45.780Z,6.60
2023-01-18T16:58:14.156Z,6.50
2023-01-18T17:00:50.502Z,6.50
2023-01-18T17:03:17.933Z,6.50
2023-01-18T17:05:45.162Z,6.50
2023-01-18T17:08:14.075Z,6.50
2023-01-18T17:10:44.619Z,6.50
2023-01-18T17:13:12.025Z,6.60
2023-01-18T17:15:41.725Z,6.50
2023-01-18T17:18:15.704Z,6.60
2023-01-18T17:20:43.893Z,6.60
2023-01-18T17:23:11.247Z,6.60
2023-01-18T17:25:38.528Z,6.60
2023-01-18T17:28:05.822Z,6.60
2023-01-18T17:30:33.382Z,6.60
2023-01-18T17:33:01.588Z,6.60
2023-01-18T17:35:29.354Z,6.50
2023-01-18T17:38:04.684Z,6.60
2023-01-18T17:40:43.879Z,6.50
2023-01-18T17:43:25.205Z,6.40
2023-01-18T17:46:02.903Z,6.40
2023-01-18T17:48:30.266Z,6.40
2023-01-18T17:50:58.499Z,6.40
2023-01-18T17:53:26.033Z,6.30
2023-01-18T17:55:53.602Z,6.30
2023-01-18T17:58:21.164Z,6.30
2023-01-18T18:00:48.477Z,6.30
2023-01-18T18:03:16.016Z,6.30
2023-01-18T18:05:43.651Z,6.30
2023-01-18T18:08:10.967Z,6.30
2023-01-18T18:10:38.174Z,6.40
2023-01-18T18:13:05.605Z,6.30
2023-01-18T18:15:32.887Z,6.30
2023-01-18T18:18:00.156Z,6.30
2023-01-18T18:20:27.411Z,6.30
2023-01-18T18:22:54.737Z,6.20
2023-01-18T18:25:21.919Z,6.20
2023-01-18T18:27:49.248Z,6.20
2023-01-18T18:30:17.606Z,6.30
2023-01-18T18:32:44.944Z,6.30
2023-01-18T18:35:24.369Z,6.30
2023-01-18T18:37:54.537Z,6.30
2023-01-18T18:40:22.659Z,6.30
2023-01-18T18:43:01.094Z,6.40
2023-01-18T18:45:30.118Z,6.40
2023-01-18T18:47:57.525Z,6.40
2023-01-18T18:50:25.107Z,6.40
2023-01-18T18:52:52.467Z,6.30
2023-01-18T18:55:19.807Z,6.40
2023-01-18T18:57:47.079Z,6.40
2023-01-18T19:00:14.776Z,6.40
2023-01-18T19:02:42.045Z,6.40
2023-01-18T19:05:16.141Z,6.30
2023-01-18T19:07:43.500Z,6.30
2023-01-18T19:10:13.310Z,6.30
2023-01-18T19:12:40.546Z,6.30
2023-01-18T19:15:08.301Z,6.30
2023-01-18T19:17:35.576Z,6.30
2023-01-18T19:20:03.557Z,6.30
2023-01-18T19:22:30.806Z,6.30
2023-01-18T19:24:58.025Z,6.30
2023-01-18T19:27:25.611Z,6.20
2023-01-18T19:29:53.408Z,6.20
2023-01-18T19:32:21.453Z,6.20
2023-01-18T19:34:48.748Z,6.20
2023-01-18T19:37:16.153Z,6.30
2023-01-18T19:39:43.475Z,6.30
2023-01-18T19:42:10.787Z,6.30
2023-01-18T19:44:38.024Z,6.30
2023-01-18T19:47:05.312Z,6.30
2023-01-18T19:49:32.565Z,6.40
2023-01-18T19:51:59.875Z,6.40
2023-01-18T19:54:27.156Z,6.40
2023-01-18T19:56:54.438Z,6.40
2023-01-18T19:59:21.752Z,6.40
2023-01-18T20:01:49.220Z,6.40
2023-01-18T20:04:16.620Z,6.40
2023-01-18T20:06:45.939Z,6.40
2023-01-18T20:09:26.996Z,6.40
2023-01-18T20:11:56.620Z,6.30
2023-01-18T20:14:30.689Z,6.40
2023-01-18T20:17:00.894Z,6.40
2023-01-18T20:19:28.199Z,6.30
2023-01-18T20:21:55.410Z,6.30
2023-01-18T20:24:22.736Z,6.20
2023-01-18T20:26:50.083Z,6.20
2023-01-18T20:29:17.361Z,6.10
2023-01-18T20:31:50.020Z,6.10
2023-01-18T20:34:18.882Z,6.10
2023-01-18T20:36:48.533Z,6.10
2023-01-18T20:39:17.388Z,6.00
2023-01-18T20:41:45.098Z,5.90
2023-01-18T20:44:12.574Z,5.80
2023-01-18T20:46:39.925Z,5.80
2023-01-18T20:49:07.497Z,5.90
2023-01-18T20:51:34.761Z,5.90
2023-01-18T20:54:02.213Z,5.90
2023-01-18T20:56:31.931Z,6.00
2023-01-18T20:58:59.355Z,6.00
2023-01-18T21:01:32.040Z,6.00
2023-01-18T21:04:01.100Z,6.10
2023-01-18T21:06:29.355Z,6.00
2023-01-18T21:08:58.249Z,6.00
2023-01-18T21:11:26.895Z,6.00
2023-01-18T21:13:55.621Z,5.90
2023-01-18T21:16:23.700Z,5.90
2023-01-18T21:18:56.085Z,5.90
2023-01-18T21:21:24.046Z,5.90
2023-01-18T21:23:51.508Z,5.90
2023-01-18T21:26:19.260Z,5.80
2023-01-18T21:28:46.519Z,5.90
2023-01-18T21:31:14.186Z,5.90
2023-01-18T21:33:42.425Z,5.80
2023-01-18T21:36:13.697Z,5.80
2023-01-18T21:38:41.364Z,5.80
2023-01-18T21:41:27.680Z,5.70
2023-01-18T21:44:13.846Z,5.70
2023-01-18T21:46:49.411Z,5.70
2023-01-18T21:49:57.728Z,5.70
2023-01-18T21:52:41.272Z,5.60
2023-01-18T21:55:08.943Z,5.60
2023-01-18T21:57:36.565Z,5.60
2023-01-18T22:00:04.961Z,5.50
2023-01-18T22:02:35.194Z,5.50
2023-01-18T22:05:03.975Z,5.40
2023-01-18T22:07:34.190Z,5.30
2023-01-18T22:10:05.728Z,5.30
2023-01-18T22:12:39.854Z,5.30
2023-01-18T22:15:08.243Z,5.40
2023-01-18T22:17:35.556Z,5.30
2023-01-18T22:20:04.493Z,5.20
2023-01-18T22:22:36.261Z,5.20
2023-01-18T22:25:06.757Z,5.20
2023-01-18T22:27:34.515Z,5.30
2023-01-18T22:30:02.216Z,5.30
2023-01-18T22:32:30.135Z,5.30
2023-01-18T22:35:27.111Z,5.30
2023-01-18T22:37:54.475Z,5.30
2023-01-18T22:40:22.295Z,5.40
2023-01-18T22:42:50.883Z,5.40
2023-01-18T22:45:21.152Z,5.40
2023-01-18T22:47:48.379Z,5.40
2023-01-18T22:50:16.391Z,5.40
2023-01-18T22:52:43.926Z,5.40
2023-01-18T22:55:11.282Z,5.40
2023-01-18T22:57:38.691Z,5.50
2023-01-18T23:00:06.989Z,5.60
2023-01-18T23:02:34.306Z,5.50
2023-01-18T23:05:01.605Z,5.50
2023-01-18T23:07:28.955Z,5.40
2023-01-18T23:09:56.594Z,5.40
2023-01-18T23:12:24.135Z,5.30
2023-01-18T23:15:09.985Z,5.40
2023-01-18T23:17:40.034Z,5.40
2023-01-18T23:20:11.900Z,5.40
2023-01-18T23:22:39.205Z,5.40
2023-01-18T23:25:06.849Z,5.40
2023-01-18T23:27:34.084Z,5.50
2023-01-18T23:30:02.572Z,5.50
2023-01-18T23:32:32.760Z,5.50
2023-01-18T23:35:00.305Z,5.50
2023-01-18T23:37:27.700Z,5.50
2023-01-18T23:40:13.740Z,5.60
2023-01-18T23:43:00.057Z,5.50
2023-01-18T23:45:45.714Z,5.40
2023-01-18T23:48:33.712Z,5.30
2023-01-18T23:51:20.143Z,5.30
2023-01-18T23:54:05.939Z,5.20
2023-01-18T23:56:34.037Z,5.30
2023-01-18T23:59:02.307Z,5.30
